createdAt,value
2017-11-15T08:05:39.213Z,10.10
2017-11-15T08:08:09.993Z,11.13
2017-11-15T08:10:40.786Z,11.37
2017-11-15T08:13:11.549Z,12.03
2017-11-15T08:15:42.327Z,10.73
2017-11-15T08:18:13.123Z,15.53
2017-11-15T08:20:43.890Z,9.63
2017-11-15T08:23:14.671Z,11.77
2017-11-15T08:25:45.430Z,8.20
2017-11-15T08:28:16.359Z,10.33
2017-11-15T08:30:47.130Z,9.10
2017-11-15T08:33:17.918Z,10.13
2017-11-15T08:35:48.684Z,8.57
2017-11-15T08:38:19.453Z,8.37
2017-11-15T08:40:50.200Z,7.63
2017-11-15T08:43:20.987Z,10.03
2017-11-15T08:45:51.733Z,6.10
2017-11-15T08:48:22.610Z,6.40
2017-11-15T08:50:53.370Z,7.33
2017-11-15T08:53:24.154Z,6.83
2017-11-15T08:55:54.906Z,7.33
2017-11-15T08:58:25.665Z,7.47
2017-11-15T09:00:56.438Z,9.33
2017-11-15T09:03:27.221Z,26.73
2017-11-15T09:05:57.978Z,35.43
2017-11-15T09:08:28.769Z,97.40
2017-11-15T09:10:59.562Z,78.43
2017-11-15T09:13:30.329Z,68.23
2017-11-15T09:16:01.114Z,65.53
2017-11-15T09:18:31.878Z,74.53
2017-11-15T09:21:02.667Z,71.17
2017-11-15T09:23:33.418Z,52.63
2017-11-15T09:26:04.182Z,51.70
2017-11-15T09:28:34.947Z,45.93
2017-11-15T09:31:05.717Z,47.40
2017-11-15T09:33:36.475Z,41.10
2017-11-15T09:36:07.238Z,38.47
2017-11-15T09:38:38.025Z,37.83
2017-11-15T09:41:08.801Z,37.73
2017-11-15T09:43:39.565Z,41.40
2017-11-15T09:46:10.339Z,38.97
2017-11-15T09:48:41.106Z,30.43
2017-11-15T09:51:11.865Z,30.10
2017-11-15T09:53:42.641Z,38.53
2017-11-15T09:56:13.413Z,32.77
2017-11-15T09:58:44.202Z,34.70
2017-11-15T10:01:14.978Z,29.13
2017-11-15T10:03:45.754Z,27.73
2017-11-15T10:06:16.517Z,27.10
2017-11-15T10:08:47.283Z,26.20
2017-11-15T10:11:18.038Z,26.33
2017-11-15T10:13:48.799Z,27.23
2017-11-15T10:16:19.592Z,26.80
2017-11-15T10:18:50.329Z,20.40
2017-11-15T10:21:21.133Z,22.67
2017-11-15T10:23:51.920Z,24.63
2017-11-15T10:26:22.681Z,21.97
2017-11-15T10:28:53.450Z,19.60
2017-11-15T10:31:24.214Z,17.87
2017-11-15T10:33:55.010Z,20.23
2017-11-15T10:36:25.806Z,17.70
2017-11-15T10:38:56.570Z,21.00
2017-11-15T10:41:27.346Z,16.67
2017-11-15T10:43:58.172Z,20.03
2017-11-15T10:46:28.921Z,18.07
2017-11-15T10:48:59.678Z,17.10
2017-11-15T10:51:30.441Z,16.27
2017-11-15T10:54:01.219Z,15.90
2017-11-15T10:56:32.026Z,16.77
2017-11-15T10:59:02.793Z,14.07
2017-11-15T11:01:33.575Z,14.60
2017-11-15T11:04:04.339Z,14.80
2017-11-15T11:06:35.102Z,13.40
2017-11-15T11:09:05.869Z,12.97
2017-11-15T11:11:36.622Z,14.30
2017-11-15T11:14:07.413Z,11.87
2017-11-15T11:16:38.178Z,12.50
2017-11-15T11:19:08.956Z,12.13
2017-11-15T11:21:39.702Z,9.93
2017-11-15T11:24:10.473Z,10.90
2017-11-15T11:26:41.263Z,11.00
2017-11-15T11:29:12.018Z,9.90
2017-11-15T11:31:42.781Z,11.63
2017-11-15T11:34:13.534Z,23.87
2017-11-15T11:36:45.313Z,13.30
2017-11-15T11:39:16.059Z,13.57
2017-11-15T11:41:46.837Z,10.83
2017-11-15T11:44:17.615Z,9.27
2017-11-15T11:46:48.371Z,9.83
2017-11-15T11:49:19.142Z,9.43
2017-11-15T11:51:49.926Z,9.70
2017-11-15T11:54:20.698Z,9.90
2017-11-15T11:56:51.448Z,13.73
2017-11-15T11:59:22.235Z,11.23
2017-11-15T12:01:52.993Z,8.07
2017-11-15T12:04:23.774Z,8.20
2017-11-15T12:06:54.554Z,7.50
2017-11-15T12:09:25.313Z,7.43
2017-11-15T12:11:56.074Z,6.33
2017-11-15T12:14:26.838Z,6.27
2017-11-15T12:16:57.595Z,7.30
2017-11-15T12:19:28.383Z,6.80
2017-11-15T12:21:59.125Z,11.47
2017-11-15T12:24:29.914Z,7.47
2017-11-15T12:27:00.654Z,7.60
2017-11-15T12:29:31.453Z,11.53
2017-11-15T12:32:02.210Z,7.53
2017-11-15T12:34:32.958Z,8.13
2017-11-15T12:37:03.718Z,7.20
2017-11-15T12:39:34.497Z,8.90
2017-11-15T12:42:05.270Z,7.00
2017-11-15T12:44:36.046Z,5.13
2017-11-15T12:47:06.830Z,6.07
2017-11-15T12:49:37.585Z,5.73
2017-11-15T12:52:08.357Z,6.67
2017-11-15T12:54:39.114Z,5.43
2017-11-15T12:57:09.882Z,7.10
2017-11-15T12:59:40.674Z,6.37
2017-11-15T13:02:11.453Z,5.03
2017-11-15T13:04:42.214Z,4.97
2017-11-15T13:07:12.989Z,6.37
2017-11-15T13:09:43.771Z,4.63
2017-11-15T13:12:14.535Z,5.40
2017-11-15T13:14:45.309Z,5.40
2017-11-15T13:17:16.071Z,5.13
2017-11-15T13:19:46.869Z,5.03
2017-11-15T13:22:17.618Z,5.87
2017-11-15T13:24:48.396Z,4.77
2017-11-15T13:27:19.174Z,4.53
2017-11-15T13:29:49.938Z,5.23
2017-11-15T13:32:20.739Z,5.03
2017-11-15T13:34:51.494Z,4.60
2017-11-15T13:37:22.268Z,4.50
2017-11-15T13:39:53.030Z,4.93
2017-11-15T13:42:23.813Z,5.73
2017-11-15T13:44:54.621Z,5.70
2017-11-15T13:47:25.358Z,6.13
2017-11-15T13:49:56.126Z,6.07
2017-11-15T13:52:26.887Z,5.30
2017-11-15T13:54:57.685Z,5.10
2017-11-15T13:57:28.442Z,4.27
2017-11-15T13:59:59.201Z,6.93
2017-11-15T14:02:29.950Z,4.33
2017-11-15T14:05:00.729Z,5.03
2017-11-15T14:07:31.494Z,5.37
2017-11-15T14:10:02.314Z,5.10
2017-11-15T14:12:33.073Z,4.50
2017-11-15T14:15:03.862Z,4.17
2017-11-15T14:17:34.669Z,4.20
2017-11-15T14:20:05.451Z,4.73
2017-11-15T14:22:36.222Z,4.67
2017-11-15T14:25:06.982Z,5.30
2017-11-15T14:27:37.754Z,4.90
2017-11-15T14:30:08.526Z,4.53
2017-11-15T14:32:39.306Z,4.63
2017-11-15T14:35:10.107Z,5.97
2017-11-15T14:37:40.902Z,4.00
2017-11-15T14:40:11.659Z,4.23
2017-11-15T14:42:42.441Z,5.43
2017-11-15T14:45:13.202Z,4.13
2017-11-15T14:47:43.981Z,4.30
2017-11-15T14:50:14.754Z,4.60
2017-11-15T14:52:45.501Z,4.20
2017-11-15T14:55:16.289Z,4.13
2017-11-15T14:57:47.087Z,4.27
2017-11-15T15:00:17.853Z,4.00
2017-11-15T15:02:48.618Z,4.20
2017-11-15T15:05:19.386Z,4.70
2017-11-15T15:07:50.169Z,5.83
2017-11-15T15:10:20.913Z,4.30
2017-11-15T15:12:51.685Z,4.47
2017-11-15T15:15:22.467Z,4.87
2017-11-15T15:17:53.201Z,4.40
2017-11-15T15:20:23.979Z,4.73
2017-11-15T15:22:54.837Z,4.57
2017-11-15T15:25:25.598Z,4.90
2017-11-15T15:27:56.488Z,5.83
2017-11-15T15:30:27.251Z,5.30
2017-11-15T15:32:58.017Z,5.00
2017-11-15T15:35:28.788Z,5.37
2017-11-15T15:37:59.566Z,5.13
2017-11-15T15:40:30.328Z,5.40
2017-11-15T15:43:01.124Z,5.20
2017-11-15T15:45:31.902Z,5.10
2017-11-15T15:48:02.746Z,5.73
2017-11-15T15:50:33.536Z,5.30
2017-11-15T15:53:04.321Z,5.30
2017-11-15T15:55:35.085Z,5.10
2017-11-15T15:58:05.845Z,4.63
2017-11-15T16:00:36.799Z,5.17
2017-11-15T16:03:07.868Z,5.53
2017-11-15T16:05:38.634Z,5.50
2017-11-15T16:08:09.470Z,5.80
2017-11-15T16:10:40.250Z,5.70
2017-11-15T16:13:11.059Z,5.33
2017-11-15T16:15:41.850Z,5.60
2017-11-15T16:18:12.596Z,5.43
2017-11-15T16:20:43.351Z,5.30
2017-11-15T16:23:14.116Z,5.40
2017-11-15T16:25:44.893Z,5.50
2017-11-15T16:28:15.646Z,6.03
2017-11-15T16:30:46.446Z,5.30
2017-11-15T16:33:17.196Z,5.47
2017-11-15T16:35:47.972Z,5.90
2017-11-15T16:38:18.778Z,5.60
2017-11-15T16:40:49.625Z,5.60
2017-11-15T16:43:20.373Z,5.30
2017-11-15T16:45:51.145Z,5.53
2017-11-15T16:48:21.923Z,6.13
2017-11-15T16:50:52.681Z,5.40
2017-11-15T16:53:23.486Z,5.77
2017-11-15T16:55:54.238Z,6.07
2017-11-15T16:58:25.022Z,6.10
2017-11-15T17:00:55.790Z,5.70
2017-11-15T17:03:26.653Z,6.33
2017-11-15T17:05:57.423Z,6.33
2017-11-15T17:08:28.165Z,5.73
2017-11-15T17:10:59.024Z,5.97
2017-11-15T17:13:29.872Z,6.17
2017-11-15T17:16:00.703Z,6.33
2017-11-15T17:18:31.477Z,6.23
2017-11-15T17:21:02.326Z,6.47
2017-11-15T17:23:33.078Z,6.53
2017-11-15T17:26:03.861Z,6.80
2017-11-15T17:28:34.630Z,6.50
2017-11-15T17:31:05.395Z,7.27
2017-11-15T17:33:36.205Z,6.50
2017-11-15T17:36:06.978Z,7.10
2017-11-15T17:38:37.767Z,6.10
2017-11-15T17:41:08.580Z,6.57
2017-11-15T17:43:39.361Z,6.60
2017-11-15T17:46:10.121Z,6.77
2017-11-15T17:48:40.909Z,6.93
2017-11-15T17:51:11.702Z,6.90
2017-11-15T17:53:42.506Z,6.70
2017-11-15T17:56:13.258Z,7.10
2017-11-15T17:58:44.050Z,7.20
2017-11-15T18:01:14.814Z,6.60
2017-11-15T18:03:45.565Z,6.33
2017-11-15T18:06:16.339Z,7.17
2017-11-15T18:08:47.086Z,7.20
2017-11-15T18:11:17.874Z,7.30
2017-11-15T18:13:48.639Z,7.27
2017-11-15T18:16:19.413Z,7.20
2017-11-15T18:18:50.246Z,6.43
2017-11-15T18:21:21.013Z,6.90
2017-11-15T18:23:51.800Z,7.13
2017-11-15T18:26:22.565Z,7.73
2017-11-15T18:28:53.326Z,6.80
2017-11-15T18:31:24.133Z,6.93
2017-11-15T18:33:55.167Z,6.63
2017-11-15T18:36:25.910Z,7.30
2017-11-15T18:38:56.681Z,7.37
2017-11-15T18:41:27.442Z,7.20
2017-11-15T18:43:58.258Z,7.40
2017-11-15T18:46:29.041Z,6.93
2017-11-15T18:48:59.798Z,7.37
2017-11-15T18:51:30.545Z,7.47
2017-11-15T18:54:01.336Z,7.50
2017-11-15T18:56:32.085Z,6.97
2017-11-15T18:59:02.849Z,7.10
2017-11-15T19:01:33.593Z,6.93
2017-11-15T19:04:04.379Z,7.20
2017-11-15T19:06:35.138Z,7.90
2017-11-15T19:09:05.954Z,7.03
2017-11-15T19:11:36.706Z,7.47
2017-11-15T19:14:07.485Z,7.00
2017-11-15T19:16:38.251Z,7.33
2017-11-15T19:19:09.001Z,7.33
2017-11-15T19:21:39.786Z,7.23
2017-11-15T19:24:10.546Z,7.70
2017-11-15T19:26:41.334Z,7.60
2017-11-15T19:29:12.094Z,7.63
2017-11-15T19:31:42.894Z,7.30
2017-11-15T19:34:13.670Z,7.50
2017-11-15T19:36:44.429Z,8.00
2017-11-15T19:39:15.196Z,7.93
2017-11-15T19:41:45.985Z,7.30
2017-11-15T19:44:16.802Z,7.20
2017-11-15T19:46:47.577Z,7.30
2017-11-15T19:49:18.346Z,7.10
2017-11-15T19:51:49.115Z,7.43
2017-11-15T19:54:19.893Z,7.70
2017-11-15T19:56:50.741Z,7.77
2017-11-15T19:59:21.549Z,7.00
2017-11-15T20:01:52.325Z,7.97
2017-11-15T20:04:23.091Z,7.07
2017-11-15T20:06:53.874Z,7.50
2017-11-15T20:09:24.634Z,7.60
2017-11-15T20:11:55.419Z,7.43
2017-11-15T20:14:26.157Z,7.53
2017-11-15T20:16:56.946Z,7.17
2017-11-15T20:19:27.768Z,7.23
2017-11-15T20:21:58.625Z,7.30
2017-11-15T20:24:29.397Z,8.10
2017-11-15T20:27:00.176Z,7.83
2017-11-15T20:29:30.935Z,7.57
2017-11-15T20:32:01.695Z,7.70
2017-11-15T20:34:32.489Z,7.70
2017-11-15T20:37:03.249Z,8.00
2017-11-15T20:39:34.048Z,7.73
2017-11-15T20:42:04.794Z,7.73
2017-11-15T20:44:35.613Z,7.53
2017-11-15T20:47:06.356Z,7.90
2017-11-15T20:49:37.132Z,8.07
2017-11-15T20:52:07.889Z,7.33
2017-11-15T20:54:38.633Z,7.90
2017-11-15T20:57:09.446Z,8.57
2017-11-15T20:59:40.209Z,8.47
2017-11-15T21:02:10.975Z,7.83
2017-11-15T21:04:41.755Z,8.03
2017-11-15T21:07:12.558Z,8.37
2017-11-15T21:09:43.314Z,7.93
2017-11-15T21:12:14.211Z,7.73
2017-11-15T21:14:44.966Z,8.83
2017-11-15T21:17:15.760Z,8.17
2017-11-15T21:19:46.538Z,8.27
2017-11-15T21:22:17.302Z,8.43
2017-11-15T21:24:48.097Z,8.87
2017-11-15T21:27:18.897Z,8.43
2017-11-15T21:29:49.657Z,7.97
2017-11-15T21:32:20.411Z,8.27
2017-11-15T21:34:51.214Z,9.03
2017-11-15T21:37:21.984Z,8.03
2017-11-15T21:39:52.770Z,8.10
2017-11-15T21:42:23.868Z,9.53
2017-11-15T21:44:54.620Z,8.97
2017-11-15T21:47:25.394Z,9.10
2017-11-15T21:49:56.448Z,8.73
2017-11-15T21:52:27.225Z,9.20
2017-11-15T21:54:58.016Z,8.73
2017-11-15T21:57:28.818Z,8.57
2017-11-15T21:59:59.582Z,9.03
2017-11-15T22:02:30.379Z,8.73
2017-11-15T22:05:01.144Z,8.90
2017-11-15T22:07:31.916Z,8.37
2017-11-15T22:10:02.686Z,8.63
2017-11-15T22:12:33.442Z,9.23
2017-11-15T22:15:04.217Z,8.67
2017-11-15T22:17:34.977Z,8.70
2017-11-15T22:20:05.734Z,9.00
2017-11-15T22:22:36.505Z,9.13
2017-11-15T22:25:07.345Z,8.53
2017-11-15T22:27:38.118Z,8.87
2017-11-15T22:30:08.882Z,8.73
2017-11-15T22:32:39.697Z,9.43
2017-11-15T22:35:10.454Z,8.47
2017-11-15T22:37:41.257Z,9.77
2017-11-15T22:40:12.026Z,9.40
2017-11-15T22:42:42.803Z,9.87
2017-11-15T22:45:13.565Z,9.17
2017-11-15T22:47:44.377Z,8.83
2017-11-15T22:50:15.151Z,9.33
2017-11-15T22:52:45.970Z,9.70
2017-11-15T22:55:16.731Z,9.20
2017-11-15T22:57:47.494Z,9.57
2017-11-15T23:00:18.257Z,9.23
2017-11-15T23:02:49.060Z,9.60
2017-11-15T23:05:19.823Z,9.13
2017-11-15T23:07:50.600Z,9.30
2017-11-15T23:10:21.366Z,10.13
2017-11-15T23:12:52.123Z,9.03
2017-11-15T23:15:22.896Z,9.60
2017-11-15T23:17:53.661Z,9.10
2017-11-15T23:20:24.443Z,9.33
2017-11-15T23:22:55.203Z,9.90
2017-11-15T23:25:25.968Z,9.03
2017-11-15T23:27:56.772Z,9.30
2017-11-15T23:30:27.510Z,9.67
2017-11-15T23:32:58.285Z,9.37
2017-11-15T23:35:29.041Z,9.37
2017-11-15T23:37:59.838Z,9.43
2017-11-15T23:40:30.623Z,9.50
2017-11-15T23:43:01.394Z,9.40
2017-11-15T23:45:32.146Z,9.50
2017-11-15T23:48:02.913Z,9.53
2017-11-15T23:50:33.674Z,9.23
2017-11-15T23:53:04.445Z,9.80
2017-11-15T23:55:35.198Z,9.70
2017-11-15T23:58:05.963Z,9.77
